createdAt,value
2023-02-07T00:00:16.888Z,72.80
2023-02-07T00:03:20.385Z,72.50
2023-02-07T00:06:28.802Z,72.10
2023-02-07T00:09:30.800Z,72.30
2023-02-07T00:12:34.378Z,72.20
2023-02-07T00:15:36.903Z,72.00
2023-02-07T00:18:40.223Z,72.10
2023-02-07T00:21:42.416Z,72.30
2023-02-07T00:24:44.572Z,72.40
2023-02-07T00:27:46.858Z,72.60
2023-02-07T00:30:49.310Z,72.60
2023-02-07T00:33:53.905Z,72.90
2023-02-07T00:36:56.073Z,72.80
2023-02-07T00:39:58.085Z,72.90
2023-02-07T00:43:00.114Z,73.00
2023-02-07T00:46:04.237Z,73.00
2023-02-07T00:49:07.714Z,72.90
2023-02-07T00:52:09.762Z,73.00
2023-02-07T00:55:11.786Z,73.00
2023-02-07T00:58:13.909Z,73.00
2023-02-07T01:01:17.019Z,73.10
2023-02-07T01:04:19.077Z,73.30
2023-02-07T01:07:23.056Z,73.30
2023-02-07T01:10:25.201Z,73.20
2023-02-07T01:13:27.211Z,73.20
2023-02-07T01:16:34.707Z,73.20
2023-02-07T01:19:36.721Z,73.30
2023-02-07T01:22:39.933Z,73.20
2023-02-07T01:25:44.296Z,73.20
2023-02-07T01:28:46.657Z,73.30
2023-02-07T01:31:48.889Z,73.30
2023-02-07T01:34:50.954Z,73.30
2023-02-07T01:37:53.138Z,73.30
2023-02-07T01:40:55.359Z,73.40
2023-02-07T01:44:05.678Z,73.80
2023-02-07T01:47:12.402Z,74.00
2023-02-07T01:50:15.376Z,74.40
2023-02-07T01:53:21.341Z,74.60
2023-02-07T01:56:31.584Z,75.10
2023-02-07T01:59:38.907Z,75.60
2023-02-07T02:02:41.189Z,76.30
2023-02-07T02:05:44.133Z,76.90
2023-02-07T02:08:47.090Z,77.50
2023-02-07T02:11:55.596Z,78.10
2023-02-07T02:15:23.310Z,78.20
2023-02-07T02:19:09.724Z,79.50
2023-02-07T02:22:31.070Z,80.50
2023-02-07T02:26:04.095Z,81.10
2023-02-07T02:29:24.929Z,81.90
2023-02-07T02:33:00.705Z,83.00
2023-02-07T02:36:05.458Z,84.80
2023-02-07T02:39:26.083Z,85.10
2023-02-07T02:42:36.057Z,85.40
2023-02-07T02:45:51.989Z,85.90
2023-02-07T02:48:55.018Z,86.30
2023-02-07T02:51:57.623Z,86.60
2023-02-07T02:54:59.653Z,86.90
2023-02-07T02:58:10.372Z,87.20
2023-02-07T03:01:52.767Z,87.50
2023-02-07T03:05:23.438Z,87.70
2023-02-07T03:08:41.731Z,87.80
2023-02-07T03:12:16.345Z,88.10
2023-02-07T03:15:24.335Z,88.20
2023-02-07T03:18:43.553Z,88.30
2023-02-07T03:21:47.345Z,88.40
2023-02-07T03:24:54.958Z,88.40
2023-02-07T03:27:57.634Z,88.40
2023-02-07T03:31:02.032Z,89.30
2023-02-07T03:34:11.330Z,88.80
2023-02-07T03:37:35.448Z,88.90
2023-02-07T03:40:43.709Z,88.90
2023-02-07T03:43:46.779Z,88.90
2023-02-07T03:46:51.478Z,88.90
2023-02-07T03:49:53.914Z,88.70
2023-02-07T03:52:56.298Z,88.60
2023-02-07T03:55:59.404Z,88.60
2023-02-07T03:59:01.386Z,88.80
2023-02-07T04:02:03.904Z,88.80
2023-02-07T04:05:06.704Z,88.80
2023-02-07T04:08:08.713Z,88.70
2023-02-07T04:11:10.975Z,88.80
2023-02-07T04:14:23.102Z,88.80
2023-02-07T04:17:25.182Z,88.90
2023-02-07T04:20:27.229Z,88.90
2023-02-07T04:23:29.681Z,88.90
2023-02-07T04:26:31.780Z,88.80
2023-02-07T04:29:33.938Z,88.80
2023-02-07T04:32:35.915Z,88.80
2023-02-07T04:35:38.231Z,88.60
2023-02-07T04:38:41.160Z,88.60
2023-02-07T04:41:43.222Z,88.60
2023-02-07T04:44:45.282Z,88.20
2023-02-07T04:47:47.355Z,88.20
2023-02-07T04:50:50.484Z,87.90
2023-02-07T04:53:52.514Z,87.70
2023-02-07T04:56:54.504Z,87.10
2023-02-07T04:59:56.498Z,87.10
2023-02-07T05:03:00.556Z,87.10
2023-02-07T05:06:02.858Z,87.00
2023-02-07T05:09:04.845Z,87.90
2023-02-07T05:12:07.154Z,87.40
2023-02-07T05:15:19.308Z,87.50
2023-02-07T05:18:31.251Z,87.40
2023-02-07T05:21:33.612Z,87.50
2023-02-07T05:24:35.775Z,87.70
2023-02-07T05:27:38.366Z,88.10
2023-02-07T05:30:40.475Z,88.30
2023-02-07T05:33:42.544Z,88.60
2023-02-07T05:36:44.864Z,88.90
2023-02-07T05:39:46.866Z,89.30
2023-02-07T05:42:48.994Z,89.60
2023-02-07T05:45:51.105Z,89.90
2023-02-07T05:48:53.125Z,90.00
2023-02-07T05:51:55.143Z,90.10
2023-02-07T05:54:58.144Z,90.10
2023-02-07T05:58:00.186Z,90.10
2023-02-07T06:01:02.783Z,90.00
2023-02-07T06:04:05.230Z,90.00
2023-02-07T06:07:07.250Z,89.90
2023-02-07T06:10:09.784Z,89.70
2023-02-07T06:13:11.882Z,89.80
2023-02-07T06:16:13.999Z,90.00
2023-02-07T06:19:16.325Z,90.10
2023-02-07T06:22:18.425Z,90.10
2023-02-07T06:25:21.405Z,90.10
2023-02-07T06:28:24.599Z,90.10
2023-02-07T06:31:27.620Z,90.00
2023-02-07T06:34:29.715Z,90.00
2023-02-07T06:37:32.224Z,90.40
2023-02-07T06:40:34.278Z,90.00
2023-02-07T06:43:36.426Z,90.10
2023-02-07T06:46:38.492Z,90.00
2023-02-07T06:49:41.006Z,90.00
2023-02-07T06:52:43.135Z,90.00
2023-02-07T06:55:45.851Z,90.10
2023-02-07T06:58:47.965Z,90.20
2023-02-07T07:01:50.287Z,90.10
2023-02-07T07:04:53.374Z,90.20
2023-02-07T07:07:56.530Z,90.30
2023-02-07T07:10:58.591Z,90.40
2023-02-07T07:14:00.762Z,90.50
2023-02-07T07:17:02.942Z,90.50
2023-02-07T07:20:05.943Z,90.40
2023-02-07T07:23:08.063Z,90.40
2023-02-07T07:26:10.041Z,90.40
2023-02-07T07:29:12.347Z,90.50
2023-02-07T07:32:28.597Z,90.50
2023-02-07T07:35:35.315Z,90.40
2023-02-07T07:41:45.379Z,90.30
2023-02-07T07:44:47.371Z,90.30
2023-02-07T07:47:49.477Z,90.40
2023-02-07T07:50:52.119Z,90.40
2023-02-07T07:53:54.168Z,90.40
2023-02-07T07:56:56.440Z,90.30
2023-02-07T07:59:58.891Z,89.80
2023-02-07T08:03:01.117Z,87.50
2023-02-07T08:06:03.341Z,86.20
2023-02-07T08:09:05.504Z,82.50
2023-02-07T08:12:08.678Z,80.30
2023-02-07T08:15:10.713Z,78.40
2023-02-07T08:18:12.842Z,77.30
2023-02-07T08:21:17.244Z,77.10
2023-02-07T08:24:19.234Z,75.30
2023-02-07T08:27:21.329Z,73.90
2023-02-07T08:30:24.796Z,72.80
2023-02-07T08:33:28.855Z,70.60
2023-02-07T08:36:32.215Z,70.30
2023-02-07T08:39:38.347Z,67.20
2023-02-07T08:42:40.650Z,65.60
2023-02-07T08:45:46.822Z,65.90
2023-02-07T08:48:49.035Z,64.50
2023-02-07T08:51:52.956Z,64.60
2023-02-07T08:54:55.066Z,62.40
2023-02-07T08:57:59.900Z,61.30
2023-02-07T09:01:02.075Z,61.80
2023-02-07T09:04:04.421Z,61.20
2023-02-07T09:07:06.478Z,61.80
2023-02-07T09:10:10.713Z,60.10
2023-02-07T09:13:12.750Z,59.80
2023-02-07T09:16:16.134Z,57.90
2023-02-07T09:19:18.455Z,58.00
2023-02-07T09:22:20.600Z,58.20
2023-02-07T09:25:22.648Z,59.40
2023-02-07T09:28:24.786Z,57.30
2023-02-07T09:31:27.495Z,56.90
2023-02-07T09:34:29.643Z,56.50
2023-02-07T09:37:39.977Z,58.50
2023-02-07T09:40:52.328Z,53.10
2023-02-07T09:44:15.995Z,52.60
2023-02-07T09:47:27.654Z,49.00
2023-02-07T09:50:42.006Z,49.80
2023-02-07T09:54:00.622Z,48.10
2023-02-07T09:57:18.385Z,44.70
2023-02-07T10:00:37.873Z,44.60
2023-02-07T10:04:01.921Z,49.40
2023-02-07T10:07:08.036Z,49.40
2023-02-07T10:10:17.828Z,50.80
2023-02-07T10:13:54.854Z,51.80
2023-02-07T10:17:31.593Z,52.10
2023-02-07T10:20:48.597Z,51.60
2023-02-07T10:24:06.628Z,54.50
2023-02-07T10:27:13.957Z,53.10
2023-02-07T10:30:20.882Z,52.80
2023-02-07T10:33:29.543Z,49.70
2023-02-07T10:36:34.418Z,48.60
2023-02-07T10:39:53.849Z,51.20
2023-02-07T10:43:17.502Z,54.10
2023-02-07T10:46:22.436Z,56.10
2023-02-07T10:49:28.669Z,56.40
2023-02-07T10:52:35.778Z,54.40
2023-02-07T10:55:46.587Z,55.30
2023-02-07T10:58:49.579Z,54.40
2023-02-07T11:01:54.653Z,54.70
2023-02-07T11:05:16.092Z,55.30
2023-02-07T11:08:33.625Z,53.20
2023-02-07T11:11:38.420Z,51.90
2023-02-07T11:14:45.676Z,48.90
2023-02-07T11:17:57.185Z,50.70
2023-02-07T11:20:59.554Z,53.00
2023-02-07T11:24:06.426Z,55.00
2023-02-07T11:27:24.512Z,56.10
2023-02-07T11:30:29.306Z,54.40
2023-02-07T11:33:34.814Z,55.40
2023-02-07T11:36:37.140Z,53.80
2023-02-07T11:39:40.223Z,54.40
2023-02-07T11:42:42.603Z,56.60
2023-02-07T11:45:51.445Z,57.30
2023-02-07T11:48:56.409Z,58.00
2023-02-07T11:52:01.912Z,56.90
2023-02-07T11:55:09.473Z,57.80
2023-02-07T11:58:35.144Z,55.30
2023-02-07T12:01:37.967Z,56.10
2023-02-07T12:04:41.468Z,57.00
2023-02-07T12:07:49.772Z,58.80
2023-02-07T12:11:10.294Z,61.70
2023-02-07T12:14:35.542Z,63.50
2023-02-07T12:18:01.868Z,67.90
2023-02-07T12:21:14.491Z,70.00
2023-02-07T12:24:49.280Z,71.70
2023-02-07T12:27:56.032Z,72.00
2023-02-07T12:31:06.535Z,72.60
2023-02-07T12:34:30.725Z,73.20
2023-02-07T12:38:09.179Z,73.50
2023-02-07T12:41:21.463Z,74.80
2023-02-07T12:44:51.058Z,76.10
2023-02-07T12:48:17.622Z,77.40
2023-02-07T12:51:33.086Z,77.80
2023-02-07T12:55:11.899Z,78.60
2023-02-07T12:58:31.722Z,78.80
2023-02-07T13:01:37.664Z,79.00
2023-02-07T13:05:23.034Z,78.20
2023-02-07T13:08:47.436Z,77.90
2023-02-07T13:12:01.117Z,77.80
2023-02-07T13:15:21.558Z,77.30
2023-02-07T13:18:58.192Z,77.80
2023-02-07T13:22:15.916Z,78.00
2023-02-07T13:25:32.857Z,78.10
2023-02-07T13:28:58.374Z,78.10
2023-02-07T13:32:12.515Z,77.80
2023-02-07T13:35:26.356Z,78.00
2023-02-07T13:38:58.153Z,77.80
2023-02-07T13:42:24.994Z,78.00
2023-02-07T13:46:09.185Z,78.80
2023-02-07T13:49:21.605Z,80.20
2023-02-07T13:52:41.353Z,80.00
2023-02-07T13:55:45.609Z,80.20
2023-02-07T13:59:15.056Z,80.30
2023-02-07T14:02:20.339Z,80.90
2023-02-07T14:05:28.674Z,80.90
2023-02-07T14:08:30.799Z,81.00
2023-02-07T14:11:41.420Z,81.30
2023-02-07T14:14:53.897Z,80.20
2023-02-07T14:18:06.710Z,79.90
2023-02-07T14:21:23.718Z,78.90
2023-02-07T14:24:32.947Z,79.20
2023-02-07T14:27:42.700Z,79.00
2023-02-07T14:30:54.212Z,79.00
2023-02-07T14:34:15.787Z,79.00
2023-02-07T14:37:36.512Z,79.00
2023-02-07T14:40:44.716Z,79.10
2023-02-07T14:44:08.002Z,79.20
2023-02-07T14:47:24.102Z,79.00
2023-02-07T14:50:32.890Z,79.80
2023-02-07T14:53:40.380Z,79.70
2023-02-07T14:57:03.734Z,80.20
2023-02-07T15:00:28.955Z,80.30
2023-02-07T15:03:33.950Z,80.80
2023-02-07T15:06:43.590Z,81.00
2023-02-07T15:09:46.178Z,80.80
2023-02-07T15:12:49.919Z,81.00
2023-02-07T15:16:08.223Z,80.70
2023-02-07T15:19:21.034Z,80.90
2023-02-07T15:22:29.965Z,81.10
2023-02-07T15:25:36.332Z,81.00
2023-02-07T15:28:38.757Z,80.40
2023-02-07T15:31:41.911Z,80.20
2023-02-07T15:34:45.400Z,80.50
2023-02-07T15:37:49.785Z,80.30
2023-02-07T15:40:54.408Z,80.00
2023-02-07T15:44:03.808Z,79.90
2023-02-07T15:47:23.475Z,79.90
2023-02-07T15:50:28.408Z,80.30
2023-02-07T15:53:31.712Z,80.40
2023-02-07T15:56:34.128Z,80.70
2023-02-07T15:59:39.010Z,80.60
2023-02-07T16:02:43.268Z,80.40
2023-02-07T16:05:45.540Z,80.60
2023-02-07T16:08:58.628Z,80.90
2023-02-07T16:12:02.253Z,80.80
2023-02-07T16:15:26.930Z,80.60
2023-02-07T16:18:43.353Z,79.80
2023-02-07T16:21:50.796Z,80.00
2023-02-07T16:24:53.085Z,80.20
2023-02-07T16:27:55.466Z,80.70
2023-02-07T16:30:59.762Z,81.10
2023-02-07T16:34:02.726Z,81.20
2023-02-07T16:37:04.857Z,81.40
2023-02-07T16:40:07.658Z,81.40
2023-02-07T16:43:09.746Z,81.60
2023-02-07T16:46:11.836Z,81.40
2023-02-07T16:49:16.220Z,81.60
2023-02-07T16:52:18.272Z,81.60
2023-02-07T16:55:21.001Z,81.70
2023-02-07T16:58:28.677Z,81.90
2023-02-07T17:01:31.545Z,82.00
2023-02-07T17:04:33.574Z,82.30
2023-02-07T17:07:35.744Z,82.50
2023-02-07T17:10:38.542Z,82.20
2023-02-07T17:13:40.923Z,82.20
2023-02-07T17:16:44.118Z,83.00
2023-02-07T17:19:47.701Z,82.70
2023-02-07T17:22:51.413Z,82.30
2023-02-07T17:25:53.518Z,82.50
2023-02-07T17:28:55.988Z,82.60
2023-02-07T17:32:00.760Z,82.80
2023-02-07T17:35:03.047Z,83.10
2023-02-07T17:38:06.612Z,83.10
2023-02-07T17:41:13.128Z,83.70
2023-02-07T17:44:21.287Z,83.60
2023-02-07T17:47:23.822Z,83.60
2023-02-07T17:50:39.657Z,84.30
2023-02-07T17:53:41.857Z,84.00
2023-02-07T17:56:43.987Z,85.50
2023-02-07T17:59:47.382Z,85.00
2023-02-07T18:02:49.937Z,85.30
2023-02-07T18:05:52.126Z,85.70
2023-02-07T18:08:56.468Z,86.10
2023-02-07T18:12:01.836Z,86.80
2023-02-07T18:15:09.124Z,86.80
2023-02-07T18:18:13.858Z,87.20
2023-02-07T18:21:17.004Z,86.80
2023-02-07T18:24:19.266Z,87.20
2023-02-07T18:27:21.593Z,87.10
2023-02-07T18:30:26.639Z,87.10
2023-02-07T18:33:29.364Z,86.90
2023-02-07T18:36:40.282Z,87.20
2023-02-07T18:39:43.134Z,87.00
2023-02-07T18:42:45.235Z,86.70
2023-02-07T18:45:48.450Z,86.80
2023-02-07T18:48:58.500Z,86.60
2023-02-07T18:52:01.011Z,86.60
2023-02-07T18:55:06.069Z,86.60
2023-02-07T18:58:09.303Z,86.50
2023-02-07T19:01:19.320Z,86.30
2023-02-07T19:04:23.180Z,86.30
2023-02-07T19:07:25.465Z,86.50
2023-02-07T19:10:27.612Z,86.40
2023-02-07T19:13:30.989Z,86.20
2023-02-07T19:16:33.216Z,86.30
2023-02-07T19:19:35.714Z,86.50
2023-02-07T19:22:37.808Z,86.50
2023-02-07T19:25:47.551Z,86.10
2023-02-07T19:28:52.847Z,86.50
2023-02-07T19:32:04.075Z,86.20
2023-02-07T19:35:06.531Z,86.30
2023-02-07T19:38:08.620Z,86.60
2023-02-07T19:41:10.762Z,86.30
2023-02-07T19:44:13.236Z,86.40
2023-02-07T19:47:16.295Z,86.20
2023-02-07T19:50:19.609Z,86.30
2023-02-07T19:53:22.988Z,86.50
2023-02-07T19:56:27.530Z,87.10
2023-02-07T19:59:29.662Z,87.10
2023-02-07T20:02:33.097Z,87.10
2023-02-07T20:05:35.231Z,87.10
2023-02-07T20:08:38.904Z,87.20
2023-02-07T20:11:40.963Z,87.10
2023-02-07T20:14:43.244Z,87.00
2023-02-07T20:17:45.629Z,86.70
2023-02-07T20:20:48.343Z,87.60
2023-02-07T20:23:52.247Z,87.00
2023-02-07T20:26:54.282Z,87.20
2023-02-07T20:29:56.715Z,87.90
2023-02-07T20:32:58.939Z,87.80
2023-02-07T20:36:01.062Z,88.10
2023-02-07T20:39:03.335Z,88.10
2023-02-07T20:42:05.811Z,88.30
2023-02-07T20:45:08.341Z,89.10
2023-02-07T20:48:13.469Z,88.80
2023-02-07T20:51:15.428Z,89.30
2023-02-07T20:54:20.113Z,89.00
2023-02-07T20:57:22.082Z,89.30
2023-02-07T21:00:24.261Z,89.50
2023-02-07T21:03:26.324Z,89.20
2023-02-07T21:06:28.968Z,89.20
2023-02-07T21:09:32.010Z,89.00
2023-02-07T21:12:34.081Z,89.20
2023-02-07T21:15:36.085Z,89.40
2023-02-07T21:18:38.218Z,89.30
2023-02-07T21:21:40.421Z,89.50
2023-02-07T21:24:43.734Z,89.50
2023-02-07T21:27:47.236Z,89.20
2023-02-07T21:30:49.343Z,90.00
2023-02-07T21:33:51.582Z,90.10
2023-02-07T21:36:53.928Z,90.10
2023-02-07T21:39:56.035Z,90.30
2023-02-07T21:42:58.230Z,90.30
2023-02-07T21:46:11.922Z,90.20
2023-02-07T21:49:16.250Z,90.00
2023-02-07T21:52:18.605Z,90.20
2023-02-07T21:55:22.280Z,90.00
2023-02-07T21:58:24.315Z,89.80
2023-02-07T22:01:28.420Z,90.00
2023-02-07T22:04:30.643Z,90.00
2023-02-07T22:07:32.664Z,90.10
2023-02-07T22:10:36.317Z,90.00
2023-02-07T22:13:42.334Z,89.60
2023-02-07T22:16:44.516Z,89.60
2023-02-07T22:19:50.557Z,89.90
2023-02-07T22:22:52.638Z,90.00
2023-02-07T22:25:54.684Z,90.10
2023-02-07T22:28:59.300Z,90.00
2023-02-07T22:32:01.595Z,90.00
2023-02-07T22:35:03.759Z,90.00
2023-02-07T22:38:07.005Z,90.10
2023-02-07T22:41:09.472Z,90.20
2023-02-07T22:44:11.878Z,90.20
2023-02-07T22:47:14.271Z,90.20
2023-02-07T22:50:16.431Z,90.20
2023-02-07T22:53:18.522Z,90.10
2023-02-07T22:56:20.807Z,90.40
2023-02-07T22:59:22.892Z,90.20
2023-02-07T23:02:25.111Z,90.30
2023-02-07T23:05:27.416Z,90.20
2023-02-07T23:08:29.778Z,90.40
2023-02-07T23:11:32.065Z,90.30
2023-02-07T23:14:34.092Z,90.20
2023-02-07T23:17:36.105Z,90.30
2023-02-07T23:20:38.363Z,90.20
2023-02-07T23:23:41.189Z,90.20
2023-02-07T23:26:43.660Z,90.00
2023-02-07T23:29:45.991Z,90.10
2023-02-07T23:32:48.047Z,90.00
2023-02-07T23:35:50.074Z,90.20
2023-02-07T23:38:52.264Z,90.10
2023-02-07T23:41:54.426Z,90.20
2023-02-07T23:44:56.638Z,90.30
2023-02-07T23:48:02.377Z,90.20
2023-02-07T23:51:05.067Z,90.30
2023-02-07T23:54:07.174Z,90.30
2023-02-07T23:57:09.353Z,90.40
